<?xml version="1.0" encoding="UTF-8"?><gpx creator="Wikiloc - https://www.wikiloc.com" version="1.1" xmlns="http://www.topografix.com/GPX/1/1" xmlns:xsi="http://www.w3.org/2001/XMLSchema-instance" xsi:schemaLocation="http://www.topografix.com/GPX/1/1 http://www.topografix.com/GPX/1/1/gpx.xsd"><metadata><name>Wikiloc - Circuito de los 5 Caños</name><author><name>Alvaro 10 Vilda</name><link href="https://www.wikiloc.com/wikiloc/user.do?id=139698"><text>Alvaro 10 Vilda on Wikiloc</text></link></author><link href="https://www.wikiloc.com/mountain-biking-trails/circuito-de-los-5-canos-129764744"><text>Circuito de los 5 Caños on Wikiloc</text></link><time>2023-03-29T11:25:29Z</time></metadata><trk><name>Circuito de los 5 Caños - Wikiloc</name><cmt></cmt><desc></desc><trkseg><trkpt lat="42.795830" lon="-4.279943"><ele>903.012</ele><time>2023-03-29T11:06:30Z</time></trkpt><trkpt lat="42.795888" lon="-4.279913"><ele>903.032</ele><time>2023-03-29T11:06:33Z</time></trkpt><trkpt lat="42.795913" lon="-4.279973"><ele>905.505</ele><time>2023-03-29T11:06:38Z</time></trkpt><trkpt lat="42.795916" lon="-4.280035"><ele>905.409</ele><time>2023-03-29T11:06:42Z</time></trkpt><trkpt lat="42.795918" lon="-4.280100"><ele>905.482</ele><time>2023-03-29T11:06:45Z</time></trkpt><trkpt lat="42.795916" lon="-4.280162"><ele>905.273</ele><time>2023-03-29T11:06:48Z</time></trkpt><trkpt lat="42.795909" lon="-4.280239"><ele>904.960</ele><time>2023-03-29T11:06:52Z</time></trkpt><trkpt lat="42.795897" lon="-4.280321"><ele>904.398</ele><time>2023-03-29T11:06:56Z</time></trkpt><trkpt lat="42.795892" lon="-4.280391"><ele>904.037</ele><time>2023-03-29T11:07:00Z</time></trkpt><trkpt lat="42.795877" lon="-4.280456"><ele>904.075</ele><time>2023-03-29T11:07:03Z</time></trkpt><trkpt lat="42.795879" lon="-4.280518"><ele>903.918</ele><time>2023-03-29T11:07:06Z</time></trkpt><trkpt lat="42.795874" lon="-4.280583"><ele>902.195</ele><time>2023-03-29T11:07:10Z</time></trkpt><trkpt lat="42.795874" lon="-4.280656"><ele>900.435</ele><time>2023-03-29T11:07:14Z</time></trkpt><trkpt lat="42.795867" lon="-4.280721"><ele>898.539</ele><time>2023-03-29T11:07:17Z</time></trkpt><trkpt lat="42.795855" lon="-4.280789"><ele>896.301</ele><time>2023-03-29T11:07:20Z</time></trkpt><trkpt lat="42.795843" lon="-4.280856"><ele>895.621</ele><time>2023-03-29T11:07:23Z</time></trkpt><trkpt lat="42.795845" lon="-4.280924"><ele>894.709</ele><time>2023-03-29T11:07:26Z</time></trkpt><trkpt lat="42.795833" lon="-4.280991"><ele>894.334</ele><time>2023-03-29T11:07:30Z</time></trkpt><trkpt lat="42.795831" lon="-4.281058"><ele>894.335</ele><time>2023-03-29T11:07:33Z</time></trkpt><trkpt lat="42.795818" lon="-4.281121"><ele>894.382</ele><time>2023-03-29T11:07:36Z</time></trkpt><trkpt lat="42.795806" lon="-4.281184"><ele>894.850</ele><time>2023-03-29T11:07:40Z</time></trkpt><trkpt lat="42.795808" lon="-4.281246"><ele>894.829</ele><time>2023-03-29T11:07:43Z</time></trkpt><trkpt lat="42.795803" lon="-4.281309"><ele>894.877</ele><time>2023-03-29T11:07:46Z</time></trkpt><trkpt lat="42.795761" lon="-4.281361"><ele>894.540</ele><time>2023-03-29T11:07:50Z</time></trkpt><trkpt lat="42.795726" lon="-4.281401"><ele>893.497</ele><time>2023-03-29T11:07:54Z</time></trkpt><trkpt lat="42.795679" lon="-4.281439"><ele>893.227</ele><time>2023-03-29T11:07:58Z</time></trkpt><trkpt lat="42.795631" lon="-4.281489"><ele>893.251</ele><time>2023-03-29T11:08:02Z</time></trkpt><trkpt lat="42.795591" lon="-4.281529"><ele>893.201</ele><time>2023-03-29T11:08:05Z</time></trkpt><trkpt lat="42.795549" lon="-4.281559"><ele>893.911</ele><time>2023-03-29T11:08:08Z</time></trkpt><trkpt lat="42.795509" lon="-4.281599"><ele>894.409</ele><time>2023-03-29T11:08:11Z</time></trkpt><trkpt lat="42.795476" lon="-4.281644"><ele>894.676</ele><time>2023-03-29T11:08:14Z</time></trkpt><trkpt lat="42.795441" lon="-4.281689"><ele>895.217</ele><time>2023-03-29T11:08:17Z</time></trkpt><trkpt lat="42.795404" lon="-4.281732"><ele>896.684</ele><time>2023-03-29T11:08:20Z</time></trkpt><trkpt lat="42.795359" lon="-4.281777"><ele>897.532</ele><time>2023-03-29T11:08:24Z</time></trkpt><trkpt lat="42.795329" lon="-4.281830"><ele>898.271</ele><time>2023-03-29T11:08:27Z</time></trkpt><trkpt lat="42.795297" lon="-4.281875"><ele>898.159</ele><time>2023-03-29T11:08:30Z</time></trkpt><trkpt lat="42.795264" lon="-4.281938"><ele>898.182</ele><time>2023-03-29T11:08:34Z</time></trkpt><trkpt lat="42.795249" lon="-4.281996"><ele>898.199</ele><time>2023-03-29T11:08:37Z</time></trkpt><trkpt lat="42.795232" lon="-4.282059"><ele>898.019</ele><time>2023-03-29T11:08:40Z</time></trkpt><trkpt lat="42.795222" lon="-4.282142"><ele>897.897</ele><time>2023-03-29T11:08:44Z</time></trkpt><trkpt lat="42.795217" lon="-4.282210"><ele>897.823</ele><time>2023-03-29T11:08:47Z</time></trkpt><trkpt lat="42.795207" lon="-4.282272"><ele>897.525</ele><time>2023-03-29T11:08:50Z</time></trkpt><trkpt lat="42.795197" lon="-4.282339"><ele>896.709</ele><time>2023-03-29T11:08:53Z</time></trkpt><trkpt lat="42.795192" lon="-4.282412"><ele>896.490</ele><time>2023-03-29T11:08:57Z</time></trkpt><trkpt lat="42.795182" lon="-4.282474"><ele>896.311</ele><time>2023-03-29T11:09:00Z</time></trkpt><trkpt lat="42.795174" lon="-4.282541"><ele>896.238</ele><time>2023-03-29T11:09:03Z</time></trkpt><trkpt lat="42.795156" lon="-4.282618"><ele>895.686</ele><time>2023-03-29T11:09:07Z</time></trkpt><trkpt lat="42.795136" lon="-4.282675"><ele>895.445</ele><time>2023-03-29T11:09:10Z</time></trkpt><trkpt lat="42.795109" lon="-4.282747"><ele>895.253</ele><time>2023-03-29T11:09:14Z</time></trkpt><trkpt lat="42.795087" lon="-4.282819"><ele>894.576</ele><time>2023-03-29T11:09:18Z</time></trkpt><trkpt lat="42.795055" lon="-4.282889"><ele>894.683</ele><time>2023-03-29T11:09:22Z</time></trkpt><trkpt lat="42.795020" lon="-4.282936"><ele>894.563</ele><time>2023-03-29T11:09:25Z</time></trkpt><trkpt lat="42.794988" lon="-4.283004"><ele>895.926</ele><time>2023-03-29T11:09:29Z</time></trkpt><trkpt lat="42.794961" lon="-4.283054"><ele>896.347</ele><time>2023-03-29T11:09:32Z</time></trkpt><trkpt lat="42.794928" lon="-4.283109"><ele>896.311</ele><time>2023-03-29T11:09:35Z</time></trkpt><trkpt lat="42.794893" lon="-4.283156"><ele>896.409</ele><time>2023-03-29T11:09:38Z</time></trkpt><trkpt lat="42.794851" lon="-4.283209"><ele>895.823</ele><time>2023-03-29T11:09:43Z</time></trkpt><trkpt lat="42.794813" lon="-4.283257"><ele>895.734</ele><time>2023-03-29T11:09:46Z</time></trkpt><trkpt lat="42.794773" lon="-4.283290"><ele>895.511</ele><time>2023-03-29T11:09:49Z</time></trkpt><trkpt lat="42.794728" lon="-4.283312"><ele>895.359</ele><time>2023-03-29T11:09:52Z</time></trkpt><trkpt lat="42.794685" lon="-4.283337"><ele>895.188</ele><time>2023-03-29T11:09:55Z</time></trkpt><trkpt lat="42.794642" lon="-4.283360"><ele>893.886</ele><time>2023-03-29T11:09:58Z</time></trkpt><trkpt lat="42.794599" lon="-4.283377"><ele>893.759</ele><time>2023-03-29T11:10:01Z</time></trkpt><trkpt lat="42.794544" lon="-4.283420"><ele>893.826</ele><time>2023-03-29T11:10:05Z</time></trkpt><trkpt lat="42.794497" lon="-4.283447"><ele>894.296</ele><time>2023-03-29T11:10:08Z</time></trkpt><trkpt lat="42.794445" lon="-4.283474"><ele>894.859</ele><time>2023-03-29T11:10:12Z</time></trkpt><trkpt lat="42.794390" lon="-4.283489"><ele>894.803</ele><time>2023-03-29T11:10:16Z</time></trkpt><trkpt lat="42.794333" lon="-4.283519"><ele>894.923</ele><time>2023-03-29T11:10:20Z</time></trkpt><trkpt lat="42.794288" lon="-4.283542"><ele>895.009</ele><time>2023-03-29T11:10:23Z</time></trkpt><trkpt lat="42.794245" lon="-4.283570"><ele>895.076</ele><time>2023-03-29T11:10:26Z</time></trkpt><trkpt lat="42.794198" lon="-4.283605"><ele>895.267</ele><time>2023-03-29T11:10:30Z</time></trkpt><trkpt lat="42.794151" lon="-4.283648"><ele>895.224</ele><time>2023-03-29T11:10:34Z</time></trkpt><trkpt lat="42.794098" lon="-4.283681"><ele>895.392</ele><time>2023-03-29T11:10:38Z</time></trkpt><trkpt lat="42.794065" lon="-4.283734"><ele>895.691</ele><time>2023-03-29T11:10:41Z</time></trkpt><trkpt lat="42.794053" lon="-4.283801"><ele>895.829</ele><time>2023-03-29T11:10:44Z</time></trkpt><trkpt lat="42.794035" lon="-4.283864"><ele>895.712</ele><time>2023-03-29T11:10:47Z</time></trkpt><trkpt lat="42.794018" lon="-4.283927"><ele>895.579</ele><time>2023-03-29T11:10:50Z</time></trkpt><trkpt lat="42.794008" lon="-4.283987"><ele>895.599</ele><time>2023-03-29T11:10:53Z</time></trkpt><trkpt lat="42.793985" lon="-4.284065"><ele>895.024</ele><time>2023-03-29T11:10:57Z</time></trkpt><trkpt lat="42.793968" lon="-4.284140"><ele>894.604</ele><time>2023-03-29T11:11:01Z</time></trkpt><trkpt lat="42.793960" lon="-4.284205"><ele>893.814</ele><time>2023-03-29T11:11:04Z</time></trkpt><trkpt lat="42.793957" lon="-4.284282"><ele>892.909</ele><time>2023-03-29T11:11:08Z</time></trkpt><trkpt lat="42.793967" lon="-4.284344"><ele>892.923</ele><time>2023-03-29T11:11:11Z</time></trkpt><trkpt lat="42.793984" lon="-4.284407"><ele>892.934</ele><time>2023-03-29T11:11:14Z</time></trkpt><trkpt lat="42.794007" lon="-4.284472"><ele>893.541</ele><time>2023-03-29T11:11:17Z</time></trkpt><trkpt lat="42.794040" lon="-4.284520"><ele>894.379</ele><time>2023-03-29T11:11:20Z</time></trkpt><trkpt lat="42.794073" lon="-4.284565"><ele>895.058</ele><time>2023-03-29T11:11:23Z</time></trkpt><trkpt lat="42.794108" lon="-4.284632"><ele>895.516</ele><time>2023-03-29T11:11:27Z</time></trkpt><trkpt lat="42.794153" lon="-4.284692"><ele>895.719</ele><time>2023-03-29T11:11:31Z</time></trkpt><trkpt lat="42.794193" lon="-4.284727"><ele>895.876</ele><time>2023-03-29T11:11:34Z</time></trkpt><trkpt lat="42.794241" lon="-4.284775"><ele>895.866</ele><time>2023-03-29T11:11:38Z</time></trkpt><trkpt lat="42.794288" lon="-4.284818"><ele>895.825</ele><time>2023-03-29T11:11:42Z</time></trkpt><trkpt lat="42.794328" lon="-4.284858"><ele>896.126</ele><time>2023-03-29T11:11:45Z</time></trkpt><trkpt lat="42.794380" lon="-4.284901"><ele>896.108</ele><time>2023-03-29T11:11:49Z</time></trkpt><trkpt lat="42.794418" lon="-4.284939"><ele>895.709</ele><time>2023-03-29T11:11:52Z</time></trkpt><trkpt lat="42.794470" lon="-4.284969"><ele>896.233</ele><time>2023-03-29T11:11:56Z</time></trkpt><trkpt lat="42.794510" lon="-4.285001"><ele>896.364</ele><time>2023-03-29T11:11:59Z</time></trkpt><trkpt lat="42.794555" lon="-4.285021"><ele>896.391</ele><time>2023-03-29T11:12:02Z</time></trkpt><trkpt lat="42.794612" lon="-4.285036"><ele>896.629</ele><time>2023-03-29T11:12:06Z</time></trkpt><trkpt lat="42.794665" lon="-4.285053"><ele>896.638</ele><time>2023-03-29T11:12:10Z</time></trkpt><trkpt lat="42.794713" lon="-4.285070"><ele>896.796</ele><time>2023-03-29T11:12:13Z</time></trkpt><trkpt lat="42.794761" lon="-4.285075"><ele>896.729</ele><time>2023-03-29T11:12:16Z</time></trkpt><trkpt lat="42.794804" lon="-4.285093"><ele>897.256</ele><time>2023-03-29T11:12:19Z</time></trkpt><trkpt lat="42.794854" lon="-4.285106"><ele>897.546</ele><time>2023-03-29T11:12:22Z</time></trkpt><trkpt lat="42.794911" lon="-4.285133"><ele>897.697</ele><time>2023-03-29T11:12:26Z</time></trkpt><trkpt lat="42.794956" lon="-4.285150"><ele>897.123</ele><time>2023-03-29T11:12:30Z</time></trkpt><trkpt lat="42.795016" lon="-4.285167"><ele>896.625</ele><time>2023-03-29T11:12:34Z</time></trkpt><trkpt lat="42.795064" lon="-4.285184"><ele>896.609</ele><time>2023-03-29T11:12:37Z</time></trkpt><trkpt lat="42.795114" lon="-4.285189"><ele>896.420</ele><time>2023-03-29T11:12:41Z</time></trkpt><trkpt lat="42.795159" lon="-4.285207"><ele>896.371</ele><time>2023-03-29T11:12:44Z</time></trkpt><trkpt lat="42.795204" lon="-4.285230"><ele>896.258</ele><time>2023-03-29T11:12:47Z</time></trkpt><trkpt lat="42.795254" lon="-4.285240"><ele>896.196</ele><time>2023-03-29T11:12:50Z</time></trkpt><trkpt lat="42.795309" lon="-4.285250"><ele>895.885</ele><time>2023-03-29T11:12:53Z</time></trkpt><trkpt lat="42.795352" lon="-4.285288"><ele>895.853</ele><time>2023-03-29T11:12:57Z</time></trkpt><trkpt lat="42.795395" lon="-4.285315"><ele>895.796</ele><time>2023-03-29T11:13:01Z</time></trkpt><trkpt lat="42.795395" lon="-4.285385"><ele>895.773</ele><time>2023-03-29T11:13:05Z</time></trkpt><trkpt lat="42.795382" lon="-4.285448"><ele>895.753</ele><time>2023-03-29T11:13:08Z</time></trkpt><trkpt lat="42.795372" lon="-4.285521"><ele>896.037</ele><time>2023-03-29T11:13:12Z</time></trkpt><trkpt lat="42.795380" lon="-4.285583"><ele>896.949</ele><time>2023-03-29T11:13:15Z</time></trkpt><trkpt lat="42.795377" lon="-4.285661"><ele>898.013</ele><time>2023-03-29T11:13:19Z</time></trkpt><trkpt lat="42.795395" lon="-4.285731"><ele>900.809</ele><time>2023-03-29T11:13:23Z</time></trkpt><trkpt lat="42.795440" lon="-4.285741"><ele>902.294</ele><time>2023-03-29T11:13:27Z</time></trkpt><trkpt lat="42.795480" lon="-4.285711"><ele>902.585</ele><time>2023-03-29T11:13:30Z</time></trkpt><trkpt lat="42.795507" lon="-4.285661"><ele>902.572</ele><time>2023-03-29T11:13:34Z</time></trkpt><trkpt lat="42.795522" lon="-4.285586"><ele>902.560</ele><time>2023-03-29T11:13:38Z</time></trkpt><trkpt lat="42.795525" lon="-4.285518"><ele>902.789</ele><time>2023-03-29T11:13:41Z</time></trkpt><trkpt lat="42.795537" lon="-4.285451"><ele>902.737</ele><time>2023-03-29T11:13:44Z</time></trkpt><trkpt lat="42.795554" lon="-4.285389"><ele>902.770</ele><time>2023-03-29T11:13:47Z</time></trkpt><trkpt lat="42.795571" lon="-4.285317"><ele>902.827</ele><time>2023-03-29T11:13:51Z</time></trkpt><trkpt lat="42.795581" lon="-4.285257"><ele>902.837</ele><time>2023-03-29T11:13:55Z</time></trkpt><trkpt lat="42.795603" lon="-4.285185"><ele>903.181</ele><time>2023-03-29T11:13:59Z</time></trkpt><trkpt lat="42.795611" lon="-4.285107"><ele>903.661</ele><time>2023-03-29T11:14:03Z</time></trkpt><trkpt lat="42.795621" lon="-4.285040"><ele>903.817</ele><time>2023-03-29T11:14:06Z</time></trkpt><trkpt lat="42.795639" lon="-4.284982"><ele>904.009</ele><time>2023-03-29T11:14:09Z</time></trkpt><trkpt lat="42.795652" lon="-4.284917"><ele>905.049</ele><time>2023-03-29T11:14:13Z</time></trkpt><trkpt lat="42.795667" lon="-4.284822"><ele>905.280</ele><time>2023-03-29T11:14:20Z</time></trkpt><trkpt lat="42.795694" lon="-4.284772"><ele>905.387</ele><time>2023-03-29T11:14:24Z</time></trkpt><trkpt lat="42.795697" lon="-4.284697"><ele>905.425</ele><time>2023-03-29T11:14:28Z</time></trkpt><trkpt lat="42.795717" lon="-4.284632"><ele>905.834</ele><time>2023-03-29T11:14:33Z</time></trkpt><trkpt lat="42.795732" lon="-4.284567"><ele>906.272</ele><time>2023-03-29T11:14:38Z</time></trkpt><trkpt lat="42.795760" lon="-4.284424"><ele>911.175</ele><time>2023-03-29T11:15:17Z</time></trkpt><trkpt lat="42.795815" lon="-4.284399"><ele>911.182</ele><time>2023-03-29T11:15:23Z</time></trkpt><trkpt lat="42.795865" lon="-4.284387"><ele>911.132</ele><time>2023-03-29T11:15:26Z</time></trkpt><trkpt lat="42.795922" lon="-4.284399"><ele>911.149</ele><time>2023-03-29T11:15:29Z</time></trkpt><trkpt lat="42.795970" lon="-4.284387"><ele>913.002</ele><time>2023-03-29T11:15:32Z</time></trkpt><trkpt lat="42.796025" lon="-4.284377"><ele>912.822</ele><time>2023-03-29T11:15:36Z</time></trkpt><trkpt lat="42.796072" lon="-4.284389"><ele>912.009</ele><time>2023-03-29T11:15:42Z</time></trkpt><trkpt lat="42.796119" lon="-4.284404"><ele>910.115</ele><time>2023-03-29T11:15:47Z</time></trkpt><trkpt lat="42.796164" lon="-4.284376"><ele>909.626</ele><time>2023-03-29T11:15:53Z</time></trkpt><trkpt lat="42.796166" lon="-4.284309"><ele>909.433</ele><time>2023-03-29T11:15:58Z</time></trkpt><trkpt lat="42.796163" lon="-4.284239"><ele>909.351</ele><time>2023-03-29T11:16:03Z</time></trkpt><trkpt lat="42.796151" lon="-4.284164"><ele>909.280</ele><time>2023-03-29T11:16:08Z</time></trkpt><trkpt lat="42.796149" lon="-4.284099"><ele>908.228</ele><time>2023-03-29T11:16:20Z</time></trkpt><trkpt lat="42.796162" lon="-4.284014"><ele>907.621</ele><time>2023-03-29T11:16:53Z</time></trkpt><trkpt lat="42.796207" lon="-4.283841"><ele>906.768</ele><time>2023-03-29T11:16:54Z</time></trkpt><trkpt lat="42.796267" lon="-4.283701"><ele>904.078</ele><time>2023-03-29T11:16:55Z</time></trkpt><trkpt lat="42.796264" lon="-4.283634"><ele>903.975</ele><time>2023-03-29T11:17:04Z</time></trkpt><trkpt lat="42.796282" lon="-4.283576"><ele>903.628</ele><time>2023-03-29T11:17:08Z</time></trkpt><trkpt lat="42.796290" lon="-4.283508"><ele>903.420</ele><time>2023-03-29T11:17:12Z</time></trkpt><trkpt lat="42.796312" lon="-4.283445"><ele>903.209</ele><time>2023-03-29T11:17:16Z</time></trkpt><trkpt lat="42.796340" lon="-4.283387"><ele>903.198</ele><time>2023-03-29T11:17:19Z</time></trkpt><trkpt lat="42.796363" lon="-4.283329"><ele>902.979</ele><time>2023-03-29T11:17:23Z</time></trkpt><trkpt lat="42.796383" lon="-4.283266"><ele>902.796</ele><time>2023-03-29T11:17:27Z</time></trkpt><trkpt lat="42.796333" lon="-4.283249"><ele>901.624</ele><time>2023-03-29T11:17:35Z</time></trkpt><trkpt lat="42.796288" lon="-4.283282"><ele>900.483</ele><time>2023-03-29T11:17:48Z</time></trkpt><trkpt lat="42.796260" lon="-4.283337"><ele>899.861</ele><time>2023-03-29T11:17:54Z</time></trkpt><trkpt lat="42.796230" lon="-4.283385"><ele>899.584</ele><time>2023-03-29T11:18:04Z</time></trkpt><trkpt lat="42.796213" lon="-4.283458"><ele>899.591</ele><time>2023-03-29T11:18:11Z</time></trkpt><trkpt lat="42.796190" lon="-4.283516"><ele>899.641</ele><time>2023-03-29T11:18:16Z</time></trkpt><trkpt lat="42.796180" lon="-4.283576"><ele>901.997</ele><time>2023-03-29T11:18:23Z</time></trkpt><trkpt lat="42.796167" lon="-4.283641"><ele>902.023</ele><time>2023-03-29T11:18:29Z</time></trkpt><trkpt lat="42.796189" lon="-4.283698"><ele>902.325</ele><time>2023-03-29T11:18:48Z</time></trkpt><trkpt lat="42.796176" lon="-4.283760"><ele>902.409</ele><time>2023-03-29T11:18:53Z</time></trkpt><trkpt lat="42.796153" lon="-4.283813"><ele>902.790</ele><time>2023-03-29T11:19:12Z</time></trkpt><trkpt lat="42.796106" lon="-4.283833"><ele>903.161</ele><time>2023-03-29T11:19:23Z</time></trkpt><trkpt lat="42.796079" lon="-4.283883"><ele>905.718</ele><time>2023-03-29T11:19:40Z</time></trkpt><trkpt lat="42.796077" lon="-4.283945"><ele>905.766</ele><time>2023-03-29T11:19:45Z</time></trkpt><trkpt lat="42.796045" lon="-4.284002"><ele>905.845</ele><time>2023-03-29T11:19:51Z</time></trkpt><trkpt lat="42.796003" lon="-4.284045"><ele>905.893</ele><time>2023-03-29T11:20:00Z</time></trkpt><trkpt lat="42.795961" lon="-4.284082"><ele>904.316</ele><time>2023-03-29T11:20:38Z</time></trkpt><trkpt lat="42.795998" lon="-4.284044"><ele>903.183</ele><time>2023-03-29T11:22:44Z</time></trkpt><trkpt lat="42.795956" lon="-4.284017"><ele>903.183</ele><time>2023-03-29T11:23:01Z</time></trkpt><trkpt lat="42.795904" lon="-4.283969"><ele>903.151</ele><time>2023-03-29T11:23:05Z</time></trkpt><trkpt lat="42.795854" lon="-4.283932"><ele>906.401</ele><time>2023-03-29T11:23:08Z</time></trkpt><trkpt lat="42.795804" lon="-4.283894"><ele>906.311</ele><time>2023-03-29T11:23:12Z</time></trkpt><trkpt lat="42.795756" lon="-4.283857"><ele>906.309</ele><time>2023-03-29T11:23:16Z</time></trkpt><trkpt lat="42.795706" lon="-4.283809"><ele>906.236</ele><time>2023-03-29T11:23:19Z</time></trkpt><trkpt lat="42.795661" lon="-4.283744"><ele>905.787</ele><time>2023-03-29T11:23:22Z</time></trkpt><trkpt lat="42.795626" lon="-4.283681"><ele>905.394</ele><time>2023-03-29T11:23:25Z</time></trkpt><trkpt lat="42.795618" lon="-4.283616"><ele>904.892</ele><time>2023-03-29T11:23:28Z</time></trkpt><trkpt lat="42.795620" lon="-4.283539"><ele>904.361</ele><time>2023-03-29T11:23:32Z</time></trkpt><trkpt lat="42.795590" lon="-4.283492"><ele>904.159</ele><time>2023-03-29T11:23:39Z</time></trkpt><trkpt lat="42.795575" lon="-4.283422"><ele>904.052</ele><time>2023-03-29T11:23:44Z</time></trkpt><trkpt lat="42.795585" lon="-4.283352"><ele>903.249</ele><time>2023-03-29T11:23:49Z</time></trkpt><trkpt lat="42.795610" lon="-4.283272"><ele>902.949</ele><time>2023-03-29T11:23:53Z</time></trkpt><trkpt lat="42.795622" lon="-4.283197"><ele>902.569</ele><time>2023-03-29T11:23:56Z</time></trkpt><trkpt lat="42.795630" lon="-4.283129"><ele>902.204</ele><time>2023-03-29T11:23:59Z</time></trkpt><trkpt lat="42.795633" lon="-4.283066"><ele>901.824</ele><time>2023-03-29T11:24:02Z</time></trkpt><trkpt lat="42.795636" lon="-4.282998"><ele>899.909</ele><time>2023-03-29T11:24:06Z</time></trkpt><trkpt lat="42.795651" lon="-4.282916"><ele>898.127</ele><time>2023-03-29T11:24:10Z</time></trkpt><trkpt lat="42.795654" lon="-4.282844"><ele>897.268</ele><time>2023-03-29T11:24:13Z</time></trkpt><trkpt lat="42.795649" lon="-4.282767"><ele>896.845</ele><time>2023-03-29T11:24:17Z</time></trkpt><trkpt lat="42.795662" lon="-4.282702"><ele>896.493</ele><time>2023-03-29T11:24:20Z</time></trkpt><trkpt lat="42.795670" lon="-4.282639"><ele>895.742</ele><time>2023-03-29T11:24:23Z</time></trkpt><trkpt lat="42.795685" lon="-4.282567"><ele>895.380</ele><time>2023-03-29T11:24:27Z</time></trkpt><trkpt lat="42.795703" lon="-4.282499"><ele>895.143</ele><time>2023-03-29T11:24:31Z</time></trkpt><trkpt lat="42.795711" lon="-4.282429"><ele>894.770</ele><time>2023-03-29T11:24:35Z</time></trkpt><trkpt lat="42.795716" lon="-4.282354"><ele>893.120</ele><time>2023-03-29T11:24:39Z</time></trkpt><trkpt lat="42.795731" lon="-4.282286"><ele>892.045</ele><time>2023-03-29T11:24:42Z</time></trkpt><trkpt lat="42.795734" lon="-4.282221"><ele>891.347</ele><time>2023-03-29T11:24:45Z</time></trkpt><trkpt lat="42.795737" lon="-4.282156"><ele>890.311</ele><time>2023-03-29T11:24:49Z</time></trkpt><trkpt lat="42.795739" lon="-4.282074"><ele>890.309</ele><time>2023-03-29T11:24:53Z</time></trkpt><trkpt lat="42.795756" lon="-4.282016"><ele>890.225</ele><time>2023-03-29T11:24:56Z</time></trkpt><trkpt lat="42.795761" lon="-4.281938"><ele>890.816</ele><time>2023-03-29T11:25:00Z</time></trkpt><trkpt lat="42.795759" lon="-4.281870"><ele>891.733</ele><time>2023-03-29T11:25:03Z</time></trkpt><trkpt lat="42.795766" lon="-4.281808"><ele>893.241</ele><time>2023-03-29T11:25:06Z</time></trkpt><trkpt lat="42.795778" lon="-4.281731"><ele>893.930</ele><time>2023-03-29T11:25:10Z</time></trkpt><trkpt lat="42.795788" lon="-4.281663"><ele>893.978</ele><time>2023-03-29T11:25:14Z</time></trkpt><trkpt lat="42.795785" lon="-4.281596"><ele>893.911</ele><time>2023-03-29T11:25:18Z</time></trkpt><trkpt lat="42.795788" lon="-4.281524"><ele>893.948</ele><time>2023-03-29T11:25:21Z</time></trkpt><trkpt lat="42.795795" lon="-4.281454"><ele>893.838</ele><time>2023-03-29T11:25:25Z</time></trkpt><trkpt lat="42.795805" lon="-4.281387"><ele>893.861</ele><time>2023-03-29T11:25:29Z</time></trkpt></trkseg></trk></gpx>